Time,TemperatureF,DewpointF,PressureIn,WindDirection,WindDirectionDegrees,WindSpeedMPH,WindSpeedGustMPH,Humidity,HourlyPrecipIn,Conditions,Clouds,dailyrainin,SoftwareType,DateUTC
2013-12-23 00:04:00,38.6,31.4,30.21,NNW,335,4.5,5.8,74,-99.99,,,-99.99,WSDL version 423,2013-12-23 06:04:00,
2013-12-23 00:09:00,38.6,31.1,30.21,NNW,338,4.3,6.3,74,-99.99,,,-99.99,WSDL version 423,2013-12-23 06:09:00,
2013-12-23 00:14:00,38.4,30.8,30.21,NNW,331,3.8,7.4,74,-99.99,,,-99.99,WSDL version 423,2013-12-23 06:14:00,
2013-12-23 00:19:00,38.4,31.0,30.21,NNW,343,4.5,7.4,74,-99.99,,,-99.99,WSDL version 423,2013-12-23 06:19:00,
2013-12-23 00:24:00,38.3,30.8,30.21,NNW,338,4.6,6.3,73,-99.99,,,-99.99,WSDL version 423,2013-12-23 06:24:00,
2013-12-23 00:29:00,38.3,30.9,30.21,NNW,334,4.3,7.4,74,-99.99,,,-99.99,WSDL version 423,2013-12-23 06:29:00,
2013-12-23 00:34:00,38.4,31.2,30.21,NNW,335,3.2,7.4,75,-99.99,,,-99.99,WSDL version 423,2013-12-23 06:34:00,
2013-12-23 00:39:00,38.4,31.5,30.21,NNW,335,3.0,6.3,76,-99.99,,,-99.99,WSDL version 423,2013-12-23 06:39:00,
2013-12-23 00:44:00,38.3,31.5,30.24,NNW,329,5.3,8.7,76,-99.99,,,-99.99,WSDL version 423,2013-12-23 06:44:00,
2013-12-23 00:49:00,38.3,31.4,30.24,NNW,332,4.9,8.7,76,-99.99,,,-99.99,WSDL version 423,2013-12-23 06:49:00,
2013-12-23 00:54:00,38.3,31.6,30.24,NW,312,3.2,6.3,77,-99.99,,,-99.99,WSDL version 423,2013-12-23 06:54:00,
2013-12-23 00:59:00,38.3,31.7,30.24,NNW,347,3.9,5.8,77,-99.99,,,-99.99,WSDL version 423,2013-12-23 06:59:00,
2013-12-23 01:04:00,38.2,31.7,30.24,NW,325,2.0,4.9,77,-99.99,,,-99.99,WSDL version 423,2013-12-23 07:04:00,
2013-12-23 01:09:00,38.2,31.7,30.24,NNW,340,4.1,5.8,77,-99.99,,,-99.99,WSDL version 423,2013-12-23 07:09:00,
2013-12-23 01:14:00,38.1,31.5,30.24,NW,315,3.7,5.8,77,-99.99,,,-99.99,WSDL version 423,2013-12-23 07:14:00,
2013-12-23 01:19:00,38.1,31.8,30.24,NNW,328,2.9,5.6,78,-99.99,,,-99.99,WSDL version 423,2013-12-23 07:19:00,
2013-12-23 01:24:00,38.1,31.8,30.24,NNW,346,3.5,5.8,78,-99.99,,,-99.99,WSDL version 423,2013-12-23 07:24:00,
2013-12-23 01:29:00,38.1,31.8,30.24,North,355,3.0,8.1,78,-99.99,,,-99.99,WSDL version 423,2013-12-23 07:29:00,
2013-12-23 01:34:00,38.1,31.6,30.24,NW,321,3.9,8.1,77,-99.99,,,-99.99,WSDL version 423,2013-12-23 07:34:00,
2013-12-23 01:39:00,38.0,31.1,30.24,NNW,343,3.5,7.4,76,-99.99,,,-99.99,WSDL version 423,2013-12-23 07:39:00,
2013-12-23 01:44:00,38.0,30.9,30.24,NNW,334,4.7,6.0,74,-99.99,,,-99.99,WSDL version 423,2013-12-23 07:44:00,
2013-12-23 01:49:00,37.9,30.4,30.24,NNW,332,4.1,6.5,73,-99.99,,,-99.99,WSDL version 423,2013-12-23 07:49:00,
2013-12-23 01:54:00,37.9,30.0,30.24,NNW,330,4.1,6.5,72,-99.99,,,-99.99,WSDL version 423,2013-12-23 07:54:00,
2013-12-23 01:59:00,37.7,29.6,30.24,NNW,331,5.8,7.2,72,-99.99,,,-99.99,WSDL version 423,2013-12-23 07:59:00,
2013-12-23 02:04:00,37.6,29.6,30.24,NNW,338,4.6,7.8,72,-99.99,,,-99.99,WSDL version 423,2013-12-23 08:04:00,
2013-12-23 02:09:00,37.6,29.5,30.24,NW,326,4.2,7.8,72,-99.99,,,-99.99,WSDL version 423,2013-12-23 08:09:00,
2013-12-23 02:14:00,37.6,29.6,30.27,NW,318,4.8,7.8,72,-99.99,,,-99.99,WSDL version 423,2013-12-23 08:14:00,
2013-12-23 02:19:00,37.7,29.8,30.27,NNE,15,2.9,6.5,73,-99.99,,,-99.99,WSDL version 423,2013-12-23 08:19:00,
2013-12-23 02:24:00,37.7,30.2,30.27,NNW,333,2.2,4.0,74,-99.99,,,-99.99,WSDL version 423,2013-12-23 08:24:00,
2013-12-23 02:29:00,37.7,30.2,30.27,NW,325,2.0,3.8,74,-99.99,,,-99.99,WSDL version 423,2013-12-23 08:29:00,
2013-12-23 02:34:00,37.7,30.1,30.27,NNW,341,3.9,4.9,73,-99.99,,,-99.99,WSDL version 423,2013-12-23 08:34:00,
2013-12-23 02:39:00,37.7,29.9,30.27,NW,323,2.8,4.9,73,-99.99,,,-99.99,WSDL version 423,2013-12-23 08:39:00,
2013-12-23 02:44:00,37.7,30.0,30.27,NNW,333,2.9,4.9,73,-99.99,,,-99.99,WSDL version 423,2013-12-23 08:44:00,
2013-12-23 02:49:00,37.6,29.2,30.27,NNW,340,5.1,7.6,71,-99.99,,,-99.99,WSDL version 423,2013-12-23 08:49:00,
2013-12-23 02:54:00,37.5,28.5,30.27,NNW,346,3.9,7.6,70,-99.99,,,-99.99,WSDL version 423,2013-12-23 08:54:00,
2013-12-23 02:59:00,37.5,28.8,30.27,NW,321,2.9,8.1,72,-99.99,,,-99.99,WSDL version 423,2013-12-23 08:59:00,
2013-12-23 03:04:00,37.4,29.0,30.27,NW,321,4.5,8.1,71,-99.99,,,-99.99,WSDL version 423,2013-12-23 09:04:00,
2013-12-23 03:09:00,37.4,28.8,30.27,NW,307,4.8,8.5,72,-99.99,,,-99.99,WSDL version 423,2013-12-23 09:09:00,
2013-12-23 03:14:00,37.4,29.3,30.30,NNW,338,3.5,8.5,73,-99.99,,,-99.99,WSDL version 423,2013-12-23 09:14:00,
2013-12-23 03:19:00,37.4,29.9,30.30,NW,315,2.1,6.5,74,-99.99,,,-99.99,WSDL version 423,2013-12-23 09:19:00,
2013-12-23 03:24:00,37.4,30.0,30.30,NNW,335,4.9,7.6,74,-99.99,,,-99.99,WSDL version 423,2013-12-23 09:24:00,
2013-12-23 03:29:00,37.1,28.9,30.30,NNW,329,5.3,10.1,72,-99.99,,,-99.99,WSDL version 423,2013-12-23 09:29:00,
2013-12-23 03:34:00,36.9,28.3,30.30,NNW,334,6.1,10.1,71,-99.99,,,-99.99,WSDL version 423,2013-12-23 09:34:00,
2013-12-23 03:39:00,36.9,28.6,30.30,NNW,329,3.2,7.8,72,-99.99,,,-99.99,WSDL version 423,2013-12-23 09:39:00,
2013-12-23 03:44:00,37.0,28.9,30.30,NNW,331,3.8,6.5,72,-99.99,,,-99.99,WSDL version 423,2013-12-23 09:44:00,
2013-12-23 03:49:00,36.9,28.7,30.30,NNW,332,3.5,6.5,72,-99.99,,,-99.99,WSDL version 423,2013-12-23 09:49:00,
2013-12-23 03:54:00,36.9,28.9,30.30,NNW,335,3.5,5.6,72,-99.99,,,-99.99,WSDL version 423,2013-12-23 09:54:00,
2013-12-23 03:59:00,36.8,28.8,30.30,NW,319,4.7,6.0,72,-99.99,,,-99.99,WSDL version 423,2013-12-23 09:59:00,
2013-12-23 04:04:00,36.8,28.8,30.30,NNW,338,3.6,6.0,72,-99.99,,,-99.99,WSDL version 423,2013-12-23 10:04:00,
2013-12-23 04:09:00,36.8,28.8,30.30,NNW,333,4.4,6.5,72,-99.99,,,-99.99,WSDL version 423,2013-12-23 10:09:00,
2013-12-23 04:14:00,36.7,28.7,30.30,NNW,346,3.5,6.5,72,-99.99,,,-99.99,WSDL version 423,2013-12-23 10:14:00,
2013-12-23 04:19:00,36.8,28.9,30.30,NNW,334,3.8,5.8,72,-99.99,,,-99.99,WSDL version 423,2013-12-23 10:19:00,
2013-12-23 04:24:00,36.5,28.4,30.30,NW,325,3.9,6.5,72,-99.99,,,-99.99,WSDL version 423,2013-12-23 10:24:00,
2013-12-23 04:29:00,36.5,28.0,30.30,NW,324,2.8,6.5,72,-99.99,,,-99.99,WSDL version 423,2013-12-23 10:29:00,
2013-12-23 04:34:00,36.5,28.1,30.30,NNW,338,3.0,6.3,71,-99.99,,,-99.99,WSDL version 423,2013-12-23 10:34:00,
2013-12-23 04:39:00,36.4,27.3,30.30,NNW,335,3.7,7.4,69,-99.99,,,-99.99,WSDL version 423,2013-12-23 10:39:00,
2013-12-23 04:44:00,36.3,26.7,30.30,NNW,333,3.5,8.1,68,-99.99,,,-99.99,WSDL version 423,2013-12-23 10:44:00,
2013-12-23 04:49:00,36.3,26.4,30.30,NW,326,5.2,10.5,67,-99.99,,,-99.99,WSDL version 423,2013-12-23 10:49:00,
2013-12-23 04:54:00,36.3,26.2,30.30,NNW,341,3.5,10.5,66,-99.99,,,-99.99,WSDL version 423,2013-12-23 10:54:00,
2013-12-23 04:59:00,36.2,25.5,30.30,NNW,332,4.8,6.5,64,-99.99,,,-99.99,WSDL version 423,2013-12-23 10:59:00,
2013-12-23 05:04:00,36.1,25.2,30.30,NNW,338,4.3,6.5,64,-99.99,,,-99.99,WSDL version 423,2013-12-23 11:04:00,
2013-12-23 05:09:00,36.1,25.3,30.30,NNW,334,4.2,6.5,65,-99.99,,,-99.99,WSDL version 423,2013-12-23 11:09:00,
2013-12-23 05:14:00,36.1,25.5,30.33,NNW,334,4.7,6.7,64,-99.99,,,-99.99,WSDL version 423,2013-12-23 11:14:00,
2013-12-23 05:19:00,35.9,24.8,30.33,NW,326,3.7,7.2,63,-99.99,,,-99.99,WSDL version 423,2013-12-23 11:19:00,
2013-12-23 05:24:00,35.9,24.7,30.33,NNW,330,5.4,7.2,63,-99.99,,,-99.99,WSDL version 423,2013-12-23 11:24:00,
2013-12-23 05:29:00,35.8,24.8,30.33,NW,321,5.0,8.9,63,-99.99,,,-99.99,WSDL version 423,2013-12-23 11:29:00,
2013-12-23 05:34:00,35.8,24.4,30.33,NNW,332,3.5,8.9,63,-99.99,,,-99.99,WSDL version 423,2013-12-23 11:34:00,
2013-12-23 05:39:00,35.8,24.3,30.33,NW,325,3.4,7.6,63,-99.99,,,-99.99,WSDL version 423,2013-12-23 11:39:00,
2013-12-23 05:44:00,35.8,25.0,30.33,NW,319,3.9,7.6,64,-99.99,,,-99.99,WSDL version 423,2013-12-23 11:44:00,
2013-12-23 05:49:00,35.8,24.4,30.33,NW,326,3.9,6.5,62,-99.99,,,-99.99,WSDL version 423,2013-12-23 11:49:00,
2013-12-23 05:54:00,35.8,24.1,30.33,NW,325,3.0,6.3,63,-99.99,,,-99.99,WSDL version 423,2013-12-23 11:54:00,
2013-12-23 05:59:00,35.8,24.1,30.33,NNW,332,5.6,8.5,62,-99.99,,,-99.99,WSDL version 423,2013-12-23 11:59:00,
2013-12-23 06:04:00,35.7,23.7,30.33,NNW,338,3.7,8.5,62,-99.99,,,-99.99,WSDL version 423,2013-12-23 12:04:00,
2013-12-23 06:09:00,35.6,23.6,30.33,NW,325,4.2,6.5,61,-99.99,,,-99.99,WSDL version 423,2013-12-23 12:09:00,
2013-12-23 06:14:00,35.6,23.0,30.33,NNW,338,5.2,7.8,60,-99.99,,,-99.99,WSDL version 423,2013-12-23 12:14:00,
2013-12-23 06:19:00,35.5,23.2,30.33,NW,323,3.7,7.8,62,-99.99,,,-99.99,WSDL version 423,2013-12-23 12:19:00,
2013-12-23 06:24:00,35.6,23.9,30.33,NNW,338,3.1,7.2,62,-99.99,,,-99.99,WSDL version 423,2013-12-23 12:24:00,
2013-12-23 06:29:00,35.3,23.2,30.36,NNW,343,5.4,7.6,60,-99.99,,,-99.99,WSDL version 423,2013-12-23 12:29:00,
2013-12-23 06:34:00,35.2,22.8,30.36,NW,315,3.2,7.6,61,-99.99,,,-99.99,WSDL version 423,2013-12-23 12:34:00,
2013-12-23 06:39:00,35.1,22.7,30.36,NNW,330,4.0,7.4,60,-99.99,,,-99.99,WSDL version 423,2013-12-23 12:39:00,
2013-12-23 06:44:00,35.0,22.3,30.36,NNW,333,4.8,8.5,59,-99.99,,,-99.99,WSDL version 423,2013-12-23 12:44:00,
2013-12-23 06:49:00,34.8,21.6,30.36,NNW,335,3.1,8.5,59,-99.99,,,-99.99,WSDL version 423,2013-12-23 12:49:00,
2013-12-23 06:54:00,34.9,22.0,30.36,North,6,1.9,5.4,60,-99.99,,,-99.99,WSDL version 423,2013-12-23 12:54:00,
2013-12-23 06:59:00,35.0,22.7,30.39,NW,325,2.7,4.3,61,-99.99,,,-99.99,WSDL version 423,2013-12-23 12:59:00,
2013-12-23 07:04:00,34.9,22.3,30.39,NNW,329,2.6,4.7,60,-99.99,,,-99.99,WSDL version 423,2013-12-23 13:04:00,
2013-12-23 07:09:00,34.9,22.0,30.39,NNW,335,3.4,6.3,58,-99.99,,,-99.99,WSDL version 423,2013-12-23 13:09:00,
2013-12-23 07:14:00,34.9,21.5,30.39,NNW,334,2.8,6.3,58,-99.99,,,-99.99,WSDL version 423,2013-12-23 13:14:00,
2013-12-23 07:19:00,34.8,21.8,30.39,NNW,334,2.9,4.0,59,-99.99,,,-99.99,WSDL version 423,2013-12-23 13:19:00,
2013-12-23 07:24:00,34.8,21.8,30.39,NNW,330,3.9,6.3,58,-99.99,,,-99.99,WSDL version 423,2013-12-23 13:24:00,
2013-12-23 07:29:00,34.8,21.7,30.39,NNW,331,4.4,6.3,58,-99.99,,,-99.99,WSDL version 423,2013-12-23 13:29:00,
2013-12-23 07:34:00,34.7,21.6,30.39,NW,320,3.1,5.6,59,-99.99,,,-99.99,WSDL version 423,2013-12-23 13:34:00,
2013-12-23 07:39:00,34.7,21.1,30.39,NW,326,3.0,5.8,57,-99.99,,,-99.99,WSDL version 423,2013-12-23 13:39:00,
2013-12-23 07:44:00,34.7,21.0,30.39,NNW,330,3.1,5.8,56,-99.99,,,-99.99,WSDL version 423,2013-12-23 13:44:00,
2013-12-23 07:49:00,34.6,20.4,30.39,NNW,334,5.2,7.8,55,-99.99,,,-99.99,WSDL version 423,2013-12-23 13:49:00,
2013-12-23 07:54:00,34.4,20.5,30.39,NNW,334,4.0,7.8,57,-99.99,,,-99.99,WSDL version 423,2013-12-23 13:54:00,
2013-12-23 07:59:00,34.5,20.6,30.42,NNW,338,4.8,6.3,56,-99.99,,,-99.99,WSDL version 423,2013-12-23 13:59:00,
2013-12-23 08:04:00,34.3,20.2,30.42,NNW,332,4.9,7.4,56,-99.99,,,-99.99,WSDL version 423,2013-12-23 14:04:00,
2013-12-23 08:09:00,34.4,20.3,30.42,NNW,338,5.7,7.8,56,-99.99,,,-99.99,WSDL version 423,2013-12-23 14:09:00,
2013-12-23 08:14:00,34.3,20.1,30.42,NNW,334,4.3,8.1,56,-99.99,,,-99.99,WSDL version 423,2013-12-23 14:14:00,
2013-12-23 08:19:00,34.3,20.0,30.42,NNW,334,5.3,8.1,55,-99.99,,,-99.99,WSDL version 423,2013-12-23 14:19:00,
2013-12-23 08:24:00,34.4,20.0,30.42,NNW,341,5.2,6.5,55,-99.99,,,-99.99,WSDL version 423,2013-12-23 14:24:00,
2013-12-23 08:29:00,34.6,20.1,30.42,NNW,333,3.8,6.5,55,-99.99,,,-99.99,WSDL version 423,2013-12-23 14:29:00,
2013-12-23 08:34:00,34.6,19.6,30.42,NNE,23,5.1,7.6,54,-99.99,,,-99.99,WSDL version 423,2013-12-23 14:34:00,
2013-12-23 08:39:00,35.1,20.6,30.42,NNW,329,4.0,7.6,54,-99.99,,,-99.99,WSDL version 423,2013-12-23 14:39:00,
2013-12-23 08:44:00,35.4,20.2,30.42,NNW,331,4.0,6.0,53,-99.99,,,-99.99,WSDL version 423,2013-12-23 14:44:00,
2013-12-23 08:49:00,35.5,20.2,30.42,NNW,332,4.8,6.0,52,-99.99,,,-99.99,WSDL version 423,2013-12-23 14:49:00,
2013-12-23 08:54:00,35.5,20.2,30.42,NNW,338,3.7,6.0,53,-99.99,,,-99.99,WSDL version 423,2013-12-23 14:54:00,
2013-12-23 08:59:00,35.6,20.5,30.42,NNW,334,3.9,6.5,52,-99.99,,,-99.99,WSDL version 423,2013-12-23 14:59:00,
2013-12-23 09:04:00,35.6,19.6,30.42,NW,319,3.5,6.5,52,-99.99,,,-99.99,WSDL version 423,2013-12-23 15:04:00,
2013-12-23 09:09:00,36.0,20.2,30.42,NNW,334,2.2,5.8,54,-99.99,,,-99.99,WSDL version 423,2013-12-23 15:09:00,
2013-12-23 09:14:00,36.2,20.5,30.42,NNW,340,3.7,6.3,52,-99.99,,,-99.99,WSDL version 423,2013-12-23 15:14:00,
2013-12-23 09:19:00,36.2,20.3,30.42,NW,326,4.0,6.3,52,-99.99,,,-99.99,WSDL version 423,2013-12-23 15:19:00,
2013-12-23 09:24:00,36.3,20.8,30.42,NW,320,2.4,5.8,53,-99.99,,,-99.99,WSDL version 423,2013-12-23 15:24:00,
2013-12-23 09:29:00,36.2,20.2,30.45,NNW,338,4.3,5.6,52,-99.99,,,-99.99,WSDL version 423,2013-12-23 15:29:00,
2013-12-23 09:34:00,35.7,19.3,30.45,NNW,341,2.6,5.6,52,-99.99,,,-99.99,WSDL version 423,2013-12-23 15:34:00,
2013-12-23 09:39:00,36.7,20.9,30.45,NNW,338,2.7,3.8,53,-99.99,,,-99.99,WSDL version 423,2013-12-23 15:39:00,
2013-12-23 09:44:00,39.0,23.9,30.45,WNW,301,1.8,3.8,54,-99.99,,,-99.99,WSDL version 423,2013-12-23 15:44:00,
2013-12-23 09:49:00,41.3,24.5,30.45,NNW,334,4.0,5.6,47,-99.99,,,-99.99,WSDL version 423,2013-12-23 15:49:00,
2013-12-23 09:54:00,42.2,23.3,30.45,NW,319,3.5,6.5,44,-99.99,,,-99.99,WSDL version 423,2013-12-23 15:54:00,
2013-12-23 09:59:00,41.1,21.2,30.45,NW,318,3.3,6.5,44,-99.99,,,-99.99,WSDL version 423,2013-12-23 15:59:00,
2013-12-23 10:04:00,40.6,21.1,30.45,WNW,301,2.0,5.4,46,-99.99,,,-99.99,WSDL version 423,2013-12-23 16:04:00,
2013-12-23 10:09:00,40.1,20.7,30.45,NNW,335,3.7,5.6,44,-99.99,,,-99.99,WSDL version 423,2013-12-23 16:09:00,
2013-12-23 10:14:00,39.4,19.9,30.45,NW,323,2.9,5.6,45,-99.99,,,-99.99,WSDL version 423,2013-12-23 16:14:00,
2013-12-23 10:19:00,39.2,19.7,30.45,NNW,334,3.3,5.4,45,-99.99,,,-99.99,WSDL version 423,2013-12-23 16:19:00,
2013-12-23 10:24:00,40.3,21.6,30.45,NW,315,1.6,5.4,48,-99.99,,,-99.99,WSDL version 423,2013-12-23 16:24:00,
2013-12-23 10:29:00,40.7,21.7,30.47,NW,309,2.0,4.3,47,-99.99,,,-99.99,WSDL version 423,2013-12-23 16:29:00,
2013-12-23 10:34:00,40.2,20.8,30.47,NW,305,2.4,4.0,46,-99.99,,,-99.99,WSDL version 423,2013-12-23 16:34:00,
2013-12-23 10:39:00,40.4,21.2,30.47,NNW,332,3.0,6.0,45,-99.99,,,-99.99,WSDL version 423,2013-12-23 16:39:00,
2013-12-23 10:44:00,39.7,20.3,30.47,NW,305,3.3,6.0,46,-99.99,,,-99.99,WSDL version 423,2013-12-23 16:44:00,
2013-12-23 10:49:00,39.8,20.8,30.47,NW,326,1.6,4.9,46,-99.99,,,-99.99,WSDL version 423,2013-12-23 16:49:00,
2013-12-23 10:54:00,39.6,20.4,30.47,NW,309,1.9,6.3,46,-99.99,,,-99.99,WSDL version 423,2013-12-23 16:54:00,
2013-12-23 10:59:00,40.0,21.1,30.47,West,270,1.2,6.3,47,-99.99,,,-99.99,WSDL version 423,2013-12-23 16:59:00,
2013-12-23 11:04:00,40.1,21.2,30.47,WNW,289,0.9,2.5,46,-99.99,,,-99.99,WSDL version 423,2013-12-23 17:04:00,
2013-12-23 11:09:00,40.3,21.2,30.47,WNW,302,3.1,5.4,44,-99.99,,,-99.99,WSDL version 423,2013-12-23 17:09:00,
2013-12-23 11:14:00,40.1,20.6,30.47,NW,320,2.4,5.8,46,-99.99,,,-99.99,WSDL version 423,2013-12-23 17:14:00,
2013-12-23 11:19:00,40.3,20.8,30.47,NW,321,3.4,5.8,45,-99.99,,,-99.99,WSDL version 423,2013-12-23 17:19:00,
2013-12-23 11:24:00,40.3,20.1,30.47,NNW,338,3.8,7.2,43,-99.99,,,-99.99,WSDL version 423,2013-12-23 17:24:00,
2013-12-23 11:29:00,39.9,19.7,30.47,NNW,340,4.4,7.2,44,-99.99,,,-99.99,WSDL version 423,2013-12-23 17:29:00,
2013-12-23 11:34:00,39.8,20.2,30.47,NW,325,2.7,5.6,45,-99.99,,,-99.99,WSDL version 423,2013-12-23 17:34:00,
2013-12-23 11:39:00,40.0,20.9,30.47,WNW,293,1.7,4.9,45,-99.99,,,-99.99,WSDL version 423,2013-12-23 17:39:00,
2013-12-23 11:44:00,40.1,20.8,30.45,West,278,0.4,2.9,46,-99.99,,,-99.99,WSDL version 423,2013-12-23 17:44:00,
2013-12-23 11:49:00,40.4,21.5,30.45,NW,320,2.1,5.4,46,-99.99,,,-99.99,WSDL version 423,2013-12-23 17:49:00,
2013-12-23 11:54:00,40.3,20.9,30.45,NNW,328,2.8,5.6,45,-99.99,,,-99.99,WSDL version 423,2013-12-23 17:54:00,
2013-12-23 11:59:00,39.9,20.3,30.45,NNW,338,3.6,5.6,45,-99.99,,,-99.99,WSDL version 423,2013-12-23 17:59:00,
2013-12-23 12:04:00,39.5,20.1,30.45,NW,323,1.9,5.4,46,-99.99,,,-99.99,WSDL version 423,2013-12-23 18:04:00,
2013-12-23 12:09:00,39.2,19.7,30.45,NNW,330,3.3,4.3,45,-99.99,,,-99.99,WSDL version 423,2013-12-23 18:09:00,
2013-12-23 12:14:00,39.0,19.6,30.45,NNW,332,4.3,5.8,45,-99.99,,,-99.99,WSDL version 423,2013-12-23 18:14:00,
2013-12-23 12:19:00,38.6,19.3,30.45,NW,326,3.7,5.8,46,-99.99,,,-99.99,WSDL version 423,2013-12-23 18:19:00,
2013-12-23 12:24:00,38.3,19.5,30.45,NW,315,4.6,7.4,46,-99.99,,,-99.99,WSDL version 423,2013-12-23 18:24:00,
2013-12-23 12:29:00,38.2,19.7,30.45,NNW,334,2.6,7.4,48,-99.99,,,-99.99,WSDL version 423,2013-12-23 18:29:00,
2013-12-23 12:34:00,38.1,19.4,30.45,NNW,330,3.4,5.4,47,-99.99,,,-99.99,WSDL version 423,2013-12-23 18:34:00,
2013-12-23 12:39:00,38.0,19.7,30.45,North,349,3.3,6.3,47,-99.99,,,-99.99,WSDL version 423,2013-12-23 18:39:00,
2013-12-23 12:44:00,38.3,20.2,30.45,NNW,330,3.6,6.3,47,-99.99,,,-99.99,WSDL version 423,2013-12-23 18:44:00,
2013-12-23 12:49:00,38.5,20.1,30.45,North,9,2.0,4.9,48,-99.99,,,-99.99,WSDL version 423,2013-12-23 18:49:00,
2013-12-23 12:54:00,38.8,20.7,30.45,NNW,338,2.3,6.0,47,-99.99,,,-99.99,WSDL version 423,2013-12-23 18:54:00,
2013-12-23 12:59:00,38.4,19.5,30.45,NW,321,2.9,6.0,47,-99.99,,,-99.99,WSDL version 423,2013-12-23 18:59:00,
2013-12-23 13:04:00,38.6,19.9,30.45,NW,324,3.1,5.6,46,-99.99,,,-99.99,WSDL version 423,2013-12-23 19:04:00,
2013-12-23 13:09:00,38.4,19.4,30.45,NNW,341,3.9,6.9,46,-99.99,,,-99.99,WSDL version 423,2013-12-23 19:09:00,
2013-12-23 13:14:00,38.3,19.3,30.45,North,353,3.5,6.9,46,-99.99,,,-99.99,WSDL version 423,2013-12-23 19:14:00,
2013-12-23 13:19:00,38.3,19.2,30.45,NNW,334,3.2,4.9,45,-99.99,,,-99.99,WSDL version 423,2013-12-23 19:19:00,
2013-12-23 13:24:00,38.3,19.5,30.45,NW,324,3.7,4.9,46,-99.99,,,-99.99,WSDL version 423,2013-12-23 19:24:00,
2013-12-23 13:29:00,38.4,19.8,30.45,NW,323,1.7,4.3,47,-99.99,,,-99.99,WSDL version 423,2013-12-23 19:29:00,
2013-12-23 13:34:00,38.4,19.2,30.45,NNW,347,3.5,5.4,45,-99.99,,,-99.99,WSDL version 423,2013-12-23 19:34:00,
2013-12-23 13:39:00,38.1,18.9,30.45,NNW,341,3.4,5.4,46,-99.99,,,-99.99,WSDL version 423,2013-12-23 19:39:00,
2013-12-23 13:44:00,37.9,19.0,30.45,North,356,3.3,4.7,46,-99.99,,,-99.99,WSDL version 423,2013-12-23 19:44:00,
2013-12-23 13:49:00,38.0,19.3,30.45,NNW,340,3.1,4.7,47,-99.99,,,-99.99,WSDL version 423,2013-12-23 19:49:00,
2013-12-23 13:54:00,37.7,19.0,30.45,NNW,329,3.2,4.9,47,-99.99,,,-99.99,WSDL version 423,2013-12-23 19:54:00,
2013-12-23 13:59:00,37.4,19.0,30.45,NNW,338,3.0,4.9,47,-99.99,,,-99.99,WSDL version 423,2013-12-23 19:59:00,
2013-12-23 14:04:00,37.7,19.2,30.45,North,349,2.5,4.7,47,-99.99,,,-99.99,WSDL version 423,2013-12-23 20:04:00,
2013-12-23 14:09:00,38.1,19.3,30.45,NNW,338,3.1,4.3,46,-99.99,,,-99.99,WSDL version 423,2013-12-23 20:09:00,
2013-12-23 14:14:00,37.8,19.3,30.45,NNW,332,2.8,4.0,47,-99.99,,,-99.99,WSDL version 423,2013-12-23 20:14:00,
2013-12-23 14:19:00,37.3,18.9,30.45,NNW,330,3.0,4.9,47,-99.99,,,-99.99,WSDL version 423,2013-12-23 20:19:00,
2013-12-23 14:24:00,37.1,18.7,30.45,NW,323,2.4,4.9,47,-99.99,,,-99.99,WSDL version 423,2013-12-23 20:24:00,
2013-12-23 14:29:00,37.1,18.7,30.45,NNW,338,2.0,3.6,47,-99.99,,,-99.99,WSDL version 423,2013-12-23 20:29:00,
2013-12-23 14:34:00,37.0,18.7,30.45,NNW,335,1.6,3.6,48,-99.99,,,-99.99,WSDL version 423,2013-12-23 20:34:00,
2013-12-23 14:39:00,37.1,19.1,30.45,NNW,330,1.8,2.9,48,-99.99,,,-99.99,WSDL version 423,2013-12-23 20:39:00,
2013-12-23 14:44:00,37.5,20.0,30.45,NE,34,0.7,2.9,49,-99.99,,,-99.99,WSDL version 423,2013-12-23 20:44:00,
2013-12-23 14:49:00,37.9,19.8,30.45,North,353,3.1,5.4,47,-99.99,,,-99.99,WSDL version 423,2013-12-23 20:49:00,
2013-12-23 14:54:00,37.7,19.0,30.45,NW,321,4.5,7.2,46,-99.99,,,-99.99,WSDL version 423,2013-12-23 20:54:00,
2013-12-23 14:59:00,37.7,19.3,30.45,NW,321,2.5,7.2,48,-99.99,,,-99.99,WSDL version 423,2013-12-23 20:59:00,
2013-12-23 15:04:00,38.0,19.7,30.45,North,351,2.4,3.8,47,-99.99,,,-99.99,WSDL version 423,2013-12-23 21:04:00,
2013-12-23 15:09:00,38.1,19.7,30.45,NNW,330,1.2,4.0,47,-99.99,,,-99.99,WSDL version 423,2013-12-23 21:09:00,
2013-12-23 15:14:00,38.4,20.0,30.45,NW,306,1.3,4.3,47,-99.99,,,-99.99,WSDL version 423,2013-12-23 21:14:00,
2013-12-23 15:19:00,38.2,19.1,30.45,NW,324,3.4,8.9,46,-99.99,,,-99.99,WSDL version 423,2013-12-23 21:19:00,
2013-12-23 15:24:00,38.3,19.5,30.45,West,280,0.9,8.9,47,-99.99,,,-99.99,WSDL version 423,2013-12-23 21:24:00,
2013-12-23 15:29:00,38.6,20.1,30.45,NNW,344,1.1,5.6,47,-99.99,,,-99.99,WSDL version 423,2013-12-23 21:29:00,
2013-12-23 15:34:00,38.7,19.7,30.45,NW,325,1.8,3.8,46,-99.99,,,-99.99,WSDL version 423,2013-12-23 21:34:00,
2013-12-23 15:39:00,38.8,20.1,30.45,NW,326,2.5,3.6,46,-99.99,,,-99.99,WSDL version 423,2013-12-23 21:39:00,
2013-12-23 15:44:00,38.2,19.1,30.45,NNW,338,2.6,3.6,46,-99.99,,,-99.99,WSDL version 423,2013-12-23 21:44:00,
2013-12-23 15:49:00,38.0,19.3,30.45,WNW,302,1.0,3.6,47,-99.99,,,-99.99,WSDL version 423,2013-12-23 21:49:00,
2013-12-23 15:54:00,37.9,19.5,30.45,West,275,0.5,2.2,47,-99.99,,,-99.99,WSDL version 423,2013-12-23 21:54:00,
2013-12-23 15:59:00,37.8,19.5,30.45,NNW,329,2.0,2.9,47,-99.99,,,-99.99,WSDL version 423,2013-12-23 21:59:00,
2013-12-23 16:04:00,37.7,19.0,30.45,NW,308,2.7,3.8,46,-99.99,,,-99.99,WSDL version 423,2013-12-23 22:04:00,
2013-12-23 16:09:00,37.4,18.9,30.45,NNW,331,2.5,3.8,47,-99.99,,,-99.99,WSDL version 423,2013-12-23 22:09:00,
2013-12-23 16:14:00,37.1,18.7,30.45,NNW,329,2.3,3.6,47,-99.99,,,-99.99,WSDL version 423,2013-12-23 22:14:00,
2013-12-23 16:19:00,36.7,18.4,30.45,NNW,334,2.8,4.0,47,-99.99,,,-99.99,WSDL version 423,2013-12-23 22:19:00,
2013-12-23 16:24:00,36.4,18.3,30.45,NW,323,2.0,4.0,48,-99.99,,,-99.99,WSDL version 423,2013-12-23 22:24:00,
2013-12-23 16:29:00,36.2,18.3,30.45,NNW,330,2.5,4.3,48,-99.99,,,-99.99,WSDL version 423,2013-12-23 22:29:00,
2013-12-23 16:34:00,36.0,18.5,30.45,NW,318,2.6,4.3,49,-99.99,,,-99.99,WSDL version 423,2013-12-23 22:34:00,
2013-12-23 16:39:00,35.8,18.5,30.45,NW,321,1.6,3.8,50,-99.99,,,-99.99,WSDL version 423,2013-12-23 22:39:00,
2013-12-23 16:44:00,35.8,18.8,30.45,NNW,338,2.3,3.1,50,-99.99,,,-99.99,WSDL version 423,2013-12-23 22:44:00,
2013-12-23 16:49:00,35.6,18.6,30.45,NNW,338,1.7,3.1,50,-99.99,,,-99.99,WSDL version 423,2013-12-23 22:49:00,
2013-12-23 16:54:00,35.5,18.8,30.45,NW,323,0.6,2.9,50,-99.99,,,-99.99,WSDL version 423,2013-12-23 22:54:00,
2013-12-23 16:59:00,35.2,18.6,30.45,NNW,332,2.3,4.0,51,-99.99,,,-99.99,WSDL version 423,2013-12-23 22:59:00,
2013-12-23 17:04:00,35.0,18.4,30.45,NW,318,1.4,4.0,51,-99.99,,,-99.99,WSDL version 423,2013-12-23 23:04:00,
2013-12-23 17:09:00,35.0,18.8,30.45,NNW,332,1.0,3.8,52,-99.99,,,-99.99,WSDL version 423,2013-12-23 23:09:00,
2013-12-23 17:14:00,34.9,18.8,30.45,NNW,330,2.2,3.8,52,-99.99,,,-99.99,WSDL version 423,2013-12-23 23:14:00,
2013-12-23 17:19:00,34.7,18.7,30.45,NNW,335,2.3,3.8,52,-99.99,,,-99.99,WSDL version 423,2013-12-23 23:19:00,
2013-12-23 17:24:00,34.7,19.0,30.45,NNW,338,1.8,3.4,52,-99.99,,,-99.99,WSDL version 423,2013-12-23 23:24:00,
2013-12-23 17:29:00,34.8,19.6,30.45,NW,321,1.5,3.4,53,-99.99,,,-99.99,WSDL version 423,2013-12-23 23:29:00,
2013-12-23 17:34:00,35.0,20.1,30.45,NNW,329,1.6,2.9,54,-99.99,,,-99.99,WSDL version 423,2013-12-23 23:34:00,
2013-12-23 17:39:00,35.2,20.3,30.45,NW,325,0.7,3.6,54,-99.99,,,-99.99,WSDL version 423,2013-12-23 23:39:00,
2013-12-23 17:44:00,35.2,20.3,30.47,NNW,330,3.1,4.9,53,-99.99,,,-99.99,WSDL version 423,2013-12-23 23:44:00,
2013-12-23 17:49:00,35.2,19.5,30.47,NNW,335,3.2,4.9,52,-99.99,,,-99.99,WSDL version 423,2013-12-23 23:49:00,
2013-12-23 17:54:00,35.2,19.1,30.47,NNW,331,4.0,5.6,50,-99.99,,,-99.99,WSDL version 423,2013-12-23 23:54:00,
2013-12-23 17:59:00,35.0,18.6,30.45,NNW,338,2.2,5.6,51,-99.99,,,-99.99,WSDL version 423,2013-12-23 23:59:00,
2013-12-23 18:04:00,35.0,19.0,30.45,NNW,328,1.3,4.0,52,-99.99,,,-99.99,WSDL version 423,2013-12-24 00:04:00,
2013-12-23 18:09:00,34.7,18.7,30.45,NNW,338,2.6,3.4,52,-99.99,,,-99.99,WSDL version 423,2013-12-24 00:09:00,
2013-12-23 18:14:00,34.6,18.7,30.45,NNW,338,3.1,4.3,52,-99.99,,,-99.99,WSDL version 423,2013-12-24 00:14:00,
2013-12-23 18:19:00,34.5,18.8,30.45,NNW,340,2.7,4.3,53,-99.99,,,-99.99,WSDL version 423,2013-12-24 00:19:00,
2013-12-23 18:24:00,34.2,18.8,30.45,NNW,335,3.0,5.8,52,-99.99,,,-99.99,WSDL version 423,2013-12-24 00:24:00,
2013-12-23 18:29:00,34.1,18.7,30.45,NNW,335,2.2,5.8,53,-99.99,,,-99.99,WSDL version 423,2013-12-24 00:29:00,
2013-12-23 18:34:00,33.9,18.8,30.45,NNW,343,3.5,6.3,53,-99.99,,,-99.99,WSDL version 423,2013-12-24 00:34:00,
2013-12-23 18:39:00,33.6,18.7,30.45,NNW,335,3.7,6.3,54,-99.99,,,-99.99,WSDL version 423,2013-12-24 00:39:00,
2013-12-23 18:44:00,33.5,18.6,30.47,NNW,338,4.4,7.8,54,-99.99,,,-99.99,WSDL version 423,2013-12-24 00:44:00,
2013-12-23 18:49:00,33.2,18.3,30.47,NNW,335,4.0,7.8,54,-99.99,,,-99.99,WSDL version 423,2013-12-24 00:49:00,
2013-12-23 18:54:00,33.0,18.4,30.47,NNW,331,3.6,6.5,55,-99.99,,,-99.99,WSDL version 423,2013-12-24 00:54:00,
2013-12-23 18:59:00,32.9,18.6,30.47,NNW,332,3.5,6.0,55,-99.99,,,-99.99,WSDL version 423,2013-12-24 00:59:00,
2013-12-23 19:04:00,32.7,18.7,30.47,NNW,341,4.0,6.0,56,-99.99,,,-99.99,WSDL version 423,2013-12-24 01:04:00,
2013-12-23 19:09:00,32.7,18.7,30.47,NNW,343,3.8,6.5,56,-99.99,,,-99.99,WSDL version 423,2013-12-24 01:09:00,
2013-12-23 19:14:00,32.5,18.6,30.47,NNW,338,4.3,6.5,56,-99.99,,,-99.99,WSDL version 423,2013-12-24 01:14:00,
2013-12-23 19:19:00,32.3,18.6,30.47,NNW,341,3.1,6.0,57,-99.99,,,-99.99,WSDL version 423,2013-12-24 01:19:00,
2013-12-23 19:24:00,32.3,18.8,30.47,NNW,335,2.3,4.0,57,-99.99,,,-99.99,WSDL version 423,2013-12-24 01:24:00,
2013-12-23 19:29:00,32.2,18.7,30.47,NNW,340,2.9,5.4,57,-99.99,,,-99.99,WSDL version 423,2013-12-24 01:29:00,
2013-12-23 19:34:00,32.2,18.7,30.47,NNW,345,3.6,5.4,57,-99.99,,,-99.99,WSDL version 423,2013-12-24 01:34:00,
2013-12-23 19:39:00,32.1,19.0,30.47,NNW,340,3.2,5.8,56,-99.99,,,-99.99,WSDL version 423,2013-12-24 01:39:00,
2013-12-23 19:44:00,32.0,19.6,30.47,NNW,340,4.3,7.6,56,-99.99,,,-99.99,WSDL version 423,2013-12-24 01:44:00,
2013-12-23 19:49:00,32.0,19.9,30.47,NNW,330,3.4,7.6,58,-99.99,,,-99.99,WSDL version 423,2013-12-24 01:49:00,
2013-12-23 19:54:00,31.9,20.0,30.47,NNW,346,3.5,5.4,57,-99.99,,,-99.99,WSDL version 423,2013-12-24 01:54:00,
2013-12-23 19:59:00,31.8,19.7,30.47,North,349,3.4,5.6,56,-99.99,,,-99.99,WSDL version 423,2013-12-24 01:59:00,
2013-12-23 20:04:00,31.8,19.6,30.47,NNW,332,2.7,5.6,57,-99.99,,,-99.99,WSDL version 423,2013-12-24 02:04:00,
2013-12-23 20:09:00,31.8,19.9,30.47,NNW,338,3.2,4.9,57,-99.99,,,-99.99,WSDL version 423,2013-12-24 02:09:00,
2013-12-23 20:14:00,31.9,19.9,30.47,NNW,335,1.7,4.5,57,-99.99,,,-99.99,WSDL version 423,2013-12-24 02:14:00,
2013-12-23 20:19:00,32.0,20.1,30.47,NNW,343,2.2,4.0,58,-99.99,,,-99.99,WSDL version 423,2013-12-24 02:19:00,
2013-12-23 20:24:00,32.0,20.4,30.47,NNW,338,2.4,5.4,58,-99.99,,,-99.99,WSDL version 423,2013-12-24 02:24:00,
2013-12-23 20:29:00,31.8,19.8,30.47,NNW,328,1.9,5.4,57,-99.99,,,-99.99,WSDL version 423,2013-12-24 02:29:00,
2013-12-23 20:34:00,31.7,19.8,30.47,NNW,340,2.5,3.8,58,-99.99,,,-99.99,WSDL version 423,2013-12-24 02:34:00,
2013-12-23 20:39:00,31.8,20.1,30.47,NNW,346,2.3,3.8,58,-99.99,,,-99.99,WSDL version 423,2013-12-24 02:39:00,
2013-12-23 20:44:00,31.6,19.8,30.47,NW,323,2.3,4.7,58,-99.99,,,-99.99,WSDL version 423,2013-12-24 02:44:00,
2013-12-23 20:49:00,31.6,19.6,30.47,NNW,334,3.3,4.9,56,-99.99,,,-99.99,WSDL version 423,2013-12-24 02:49:00,
2013-12-23 20:54:00,31.6,19.6,30.47,NNW,329,3.0,5.4,58,-99.99,,,-99.99,WSDL version 423,2013-12-24 02:54:00,
2013-12-23 20:59:00,31.6,20.0,30.47,NNW,338,2.3,5.4,58,-99.99,,,-99.99,WSDL version 423,2013-12-24 02:59:00,
2013-12-23 21:04:00,31.5,19.8,30.47,NW,326,3.4,4.7,57,-99.99,,,-99.99,WSDL version 423,2013-12-24 03:04:00,
2013-12-23 21:09:00,31.3,19.3,30.47,NNW,330,2.9,4.9,57,-99.99,,,-99.99,WSDL version 423,2013-12-24 03:09:00,
2013-12-23 21:14:00,31.3,19.4,30.47,NNW,332,3.2,4.9,58,-99.99,,,-99.99,WSDL version 423,2013-12-24 03:14:00,
2013-12-23 21:19:00,31.3,19.6,30.47,NNW,328,2.2,4.3,58,-99.99,,,-99.99,WSDL version 423,2013-12-24 03:19:00,
2013-12-23 21:24:00,31.3,19.6,30.47,NNW,338,4.2,6.3,57,-99.99,,,-99.99,WSDL version 423,2013-12-24 03:24:00,
2013-12-23 21:29:00,31.3,19.4,30.47,NNW,333,2.6,6.3,57,-99.99,,,-99.99,WSDL version 423,2013-12-24 03:29:00,
2013-12-23 21:34:00,31.5,19.6,30.47,NNW,338,3.1,4.3,57,-99.99,,,-99.99,WSDL version 423,2013-12-24 03:34:00,
2013-12-23 21:39:00,31.5,19.3,30.47,NNW,328,3.7,5.4,56,-99.99,,,-99.99,WSDL version 423,2013-12-24 03:39:00,
2013-12-23 21:44:00,31.6,19.3,30.47,NNW,343,3.5,5.4,56,-99.99,,,-99.99,WSDL version 423,2013-12-24 03:44:00,
2013-12-23 21:49:00,31.6,19.3,30.47,NNW,331,4.4,6.0,56,-99.99,,,-99.99,WSDL version 423,2013-12-24 03:49:00,
2013-12-23 21:54:00,31.6,19.3,30.47,NNW,333,3.6,6.3,56,-99.99,,,-99.99,WSDL version 423,2013-12-24 03:54:00,
2013-12-23 21:59:00,31.5,18.8,30.47,NNW,329,3.5,6.3,55,-99.99,,,-99.99,WSDL version 423,2013-12-24 03:59:00,
2013-12-23 22:04:00,31.6,19.2,30.47,NNW,332,2.4,4.9,56,-99.99,,,-99.99,WSDL version 423,2013-12-24 04:04:00,
2013-12-23 22:14:00,31.6,19.1,30.47,NNW,343,3.7,5.4,55,-99.99,,,-99.99,WSDL version 423,2013-12-24 04:14:00,
2013-12-23 22:24:00,31.6,18.8,30.47,NNW,335,3.6,5.8,55,-99.99,,,-99.99,WSDL version 423,2013-12-24 04:24:00,
2013-12-23 22:29:00,31.5,18.7,30.47,NW,321,2.7,5.8,55,-99.99,,,-99.99,WSDL version 423,2013-12-24 04:29:00,
2013-12-23 22:34:00,31.5,18.8,30.47,North,354,3.7,5.4,55,-99.99,,,-99.99,WSDL version 423,2013-12-24 04:34:00,
2013-12-23 22:39:00,31.4,18.7,30.47,NNW,343,4.3,6.3,55,-99.99,,,-99.99,WSDL version 423,2013-12-24 04:39:00,
2013-12-23 22:44:00,31.5,19.2,30.47,NW,321,2.6,6.3,56,-99.99,,,-99.99,WSDL version 423,2013-12-24 04:44:00,
2013-12-23 22:49:00,31.3,19.0,30.47,NW,325,3.3,5.4,56,-99.99,,,-99.99,WSDL version 423,2013-12-24 04:49:00,
2013-12-23 22:54:00,31.1,18.7,30.47,NNW,348,4.1,6.5,56,-99.99,,,-99.99,WSDL version 423,2013-12-24 04:54:00,
2013-12-23 22:59:00,31.0,18.7,30.47,NNW,338,3.4,6.5,56,-99.99,,,-99.99,WSDL version 423,2013-12-24 04:59:00,
2013-12-23 23:04:00,30.8,18.6,30.47,North,350,4.3,6.0,57,-99.99,,,-99.99,WSDL version 423,2013-12-24 05:04:00,
2013-12-23 23:09:00,30.7,18.8,30.47,NNW,328,3.0,6.0,57,-99.99,,,-99.99,WSDL version 423,2013-12-24 05:09:00,
2013-12-23 23:14:00,30.7,18.9,30.47,NNW,338,3.9,6.0,58,-99.99,,,-99.99,WSDL version 423,2013-12-24 05:14:00,
2013-12-23 23:19:00,30.8,19.3,30.47,NNW,341,4.3,6.0,59,-99.99,,,-99.99,WSDL version 423,2013-12-24 05:19:00,
2013-12-23 23:24:00,30.9,19.3,30.47,NNW,331,4.7,6.7,58,-99.99,,,-99.99,WSDL version 423,2013-12-24 05:24:00,
2013-12-23 23:29:00,31.0,19.4,30.47,NNW,329,2.5,6.7,58,-99.99,,,-99.99,WSDL version 423,2013-12-24 05:29:00,
2013-12-23 23:34:00,30.8,18.9,30.47,NNW,335,3.0,5.8,55,-99.99,,,-99.99,WSDL version 423,2013-12-24 05:34:00,
2013-12-23 23:39:00,30.6,17.6,30.47,NNW,338,3.9,6.3,53,-99.99,,,-99.99,WSDL version 423,2013-12-24 05:39:00,
2013-12-23 23:44:00,30.4,17.1,30.47,NNW,328,5.0,6.7,53,-99.99,,,-99.99,WSDL version 423,2013-12-24 05:44:00,
2013-12-23 23:49:00,30.3,17.3,30.47,NW,323,4.9,8.5,53,-99.99,,,-99.99,WSDL version 423,2013-12-24 05:49:00,
2013-12-23 23:54:00,30.1,16.8,30.47,NNW,332,4.7,8.5,53,-99.99,,,-99.99,WSDL version 423,2013-12-24 05:54:00,
2013-12-23 23:59:00,29.9,16.8,30.47,NNW,334,5.2,7.8,53,-99.99,,,-99.99,WSDL version 423,2013-12-24 05:59:00,